KLGU/LGU METAR and TAF weather

Enter ICAO airport designator
Station Type Date Time Source
KLGU METAR 2019/08/24 18:51 UTC NOAA

KLGU 241851Z AUTO VRB03KT 10SM CLR 27/04 A3005 RMK AO2 SLP131 T02720044


Station Type Date Time Source
KLGU Decoded METAR 2019/08/24 18:51 UTC NOAA

Station name not available
Aug 24, 2019 - 02:51 PM EDT / 2019.08.24 1851 UTC
Wind: Variable at 3 MPH (3 KT):0
Visibility: 10 mile(s):0
Sky conditions: clear
Temperature: 81.0 F (27.2 C)
Dew Point: 39.9 F (4.4 C)
Relative Humidity: 23%
Pressure (altimeter): 30.05 in. Hg (1017 hPa)
ob: KLGU 241851Z AUTO VRB03KT 10SM CLR 27/04 A3005 RMK AO2 SLP131 T02720044
cycle: 19

Station Type Date Time Source
KLGU TAF 2019/08/24 18:40 UTC NOAA

TAF KLGU 241738Z 2418/2518 23007KT P6SM SKC
FM250300 VRB04KT P6SM SKC

Example: see airport list